sensor_id;sensor_type;location;lat;lon;timestamp;temperature;humidity
53904;DHT22;39812;52.430;16.936;2023-07-20T00:01:25;17.30;99.90
53904;DHT22;39812;52.430;16.936;2023-07-20T00:03:51;17.30;99.90
53904;DHT22;39812;52.430;16.936;2023-07-20T00:06:24;17.30;99.90
53904;DHT22;39812;52.430;16.936;2023-07-20T00:08:51;17.30;99.90
53904;DHT22;39812;52.430;16.936;2023-07-20T00:11:17;17.30;99.90
53904;DHT22;39812;52.430;16.936;2023-07-20T00:13:42;17.40;99.90
53904;DHT22;39812;52.430;16.936;2023-07-20T00:16:08;17.40;99.90
53904;DHT22;39812;52.430;16.936;2023-07-20T00:18:34;17.50;99.90
53904;DHT22;39812;52.430;16.936;2023-07-20T00:21:00;17.50;99.90
53904;DHT22;39812;52.430;16.936;2023-07-20T00:23:26;17.50;99.90
53904;DHT22;39812;52.430;16.936;2023-07-20T00:25:51;17.50;99.90
53904;DHT22;39812;52.430;16.936;2023-07-20T00:28:17;17.40;99.90
53904;DHT22;39812;52.430;16.936;2023-07-20T00:30:43;17.30;99.90
53904;DHT22;39812;52.430;16.936;2023-07-20T00:33:12;17.20;99.90
53904;DHT22;39812;52.430;16.936;2023-07-20T00:35:38;17.00;99.90
53904;DHT22;39812;52.430;16.936;2023-07-20T00:38:05;16.90;99.90
53904;DHT22;39812;52.430;16.936;2023-07-20T00:40:40;16.70;99.90
53904;DHT22;39812;52.430;16.936;2023-07-20T00:43:07;16.60;99.90
53904;DHT22;39812;52.430;16.936;2023-07-20T00:45:33;16.50;99.90
53904;DHT22;39812;52.430;16.936;2023-07-20T00:48:01;16.50;99.90
53904;DHT22;39812;52.430;16.936;2023-07-20T00:50:28;16.40;99.90
53904;DHT22;39812;52.430;16.936;2023-07-20T00:52:55;16.40;99.90
53904;DHT22;39812;52.430;16.936;2023-07-20T00:55:20;16.40;99.90
53904;DHT22;39812;52.430;16.936;2023-07-20T00:57:47;16.40;99.90
53904;DHT22;39812;52.430;16.936;2023-07-20T01:00:12;16.40;99.90
53904;DHT22;39812;52.430;16.936;2023-07-20T01:02:38;16.30;99.90
53904;DHT22;39812;52.430;16.936;2023-07-20T01:05:05;16.30;99.90
53904;DHT22;39812;52.430;16.936;2023-07-20T01:07:37;16.30;99.90
53904;DHT22;39812;52.430;16.936;2023-07-20T01:10:19;16.30;99.90
53904;DHT22;39812;52.430;16.936;2023-07-20T01:12:47;16.30;99.90
53904;DHT22;39812;52.430;16.936;2023-07-20T01:15:13;16.20;99.90
53904;DHT22;39812;52.430;16.936;2023-07-20T01:17:39;16.20;99.90
53904;DHT22;39812;52.430;16.936;2023-07-20T01:20:10;16.20;99.90
53904;DHT22;39812;52.430;16.936;2023-07-20T01:28:20;16.10;99.90
53904;DHT22;39812;52.430;16.936;2023-07-20T01:33:24;16.10;99.90
53904;DHT22;39812;52.430;16.936;2023-07-20T01:35:55;16.10;99.90
53904;DHT22;39812;52.430;16.936;2023-07-20T01:38:22;16.00;99.90
53904;DHT22;39812;52.430;16.936;2023-07-20T01:40:49;16.00;99.90
53904;DHT22;39812;52.430;16.936;2023-07-20T01:43:15;16.00;99.90
53904;DHT22;39812;52.430;16.936;2023-07-20T01:45:41;15.90;99.90
53904;DHT22;39812;52.430;16.936;2023-07-20T01:48:06;15.80;99.90
53904;DHT22;39812;52.430;16.936;2023-07-20T01:50:33;15.80;99.90
53904;DHT22;39812;52.430;16.936;2023-07-20T01:53:00;15.70;99.90
53904;DHT22;39812;52.430;16.936;2023-07-20T01:55:26;15.60;99.90
53904;DHT22;39812;52.430;16.936;2023-07-20T01:57:51;15.50;99.90
53904;DHT22;39812;52.430;16.936;2023-07-20T02:00:17;15.50;99.90
53904;DHT22;39812;52.430;16.936;2023-07-20T02:02:46;15.40;99.90
53904;DHT22;39812;52.430;16.936;2023-07-20T02:05:12;15.40;99.90
53904;DHT22;39812;52.430;16.936;2023-07-20T02:07:37;15.40;99.90
53904;DHT22;39812;52.430;16.936;2023-07-20T02:10:03;15.40;99.90
53904;DHT22;39812;52.430;16.936;2023-07-20T02:12:29;15.40;99.90
53904;DHT22;39812;52.430;16.936;2023-07-20T02:14:54;15.40;99.90
53904;DHT22;39812;52.430;16.936;2023-07-20T02:17:20;15.40;99.90
53904;DHT22;39812;52.430;16.936;2023-07-20T02:19:46;15.40;99.90
53904;DHT22;39812;52.430;16.936;2023-07-20T02:22:14;15.40;99.90
53904;DHT22;39812;52.430;16.936;2023-07-20T02:24:40;15.40;99.90
53904;DHT22;39812;52.430;16.936;2023-07-20T02:27:05;15.40;99.90
53904;DHT22;39812;52.430;16.936;2023-07-20T02:29:32;15.40;99.90
53904;DHT22;39812;52.430;16.936;2023-07-20T02:31:57;15.40;99.90
53904;DHT22;39812;52.430;16.936;2023-07-20T02:34:23;15.40;99.90
53904;DHT22;39812;52.430;16.936;2023-07-20T02:36:49;15.40;99.90
53904;DHT22;39812;52.430;16.936;2023-07-20T02:39:15;15.40;99.90
53904;DHT22;39812;52.430;16.936;2023-07-20T02:41:41;15.40;99.90
53904;DHT22;39812;52.430;16.936;2023-07-20T02:44:07;15.30;99.90
53904;DHT22;39812;52.430;16.936;2023-07-20T02:46:32;15.30;99.90
53904;DHT22;39812;52.430;16.936;2023-07-20T02:48:59;15.30;99.90
53904;DHT22;39812;52.430;16.936;2023-07-20T02:51:25;15.30;99.90
53904;DHT22;39812;52.430;16.936;2023-07-20T02:53:50;15.30;99.90
53904;DHT22;39812;52.430;16.936;2023-07-20T02:56:16;15.20;99.90
53904;DHT22;39812;52.430;16.936;2023-07-20T02:58:43;15.20;99.90
53904;DHT22;39812;52.430;16.936;2023-07-20T03:01:09;15.20;99.90
53904;DHT22;39812;52.430;16.936;2023-07-20T03:03:36;15.20;99.90
53904;DHT22;39812;52.430;16.936;2023-07-20T03:06:05;15.10;99.90
53904;DHT22;39812;52.430;16.936;2023-07-20T03:08:30;15.10;99.90
53904;DHT22;39812;52.430;16.936;2023-07-20T03:10:56;15.10;99.90
53904;DHT22;39812;52.430;16.936;2023-07-20T03:13:21;15.20;99.90
53904;DHT22;39812;52.430;16.936;2023-07-20T03:15:49;15.20;99.90
53904;DHT22;39812;52.430;16.936;2023-07-20T03:18:15;15.20;99.90
53904;DHT22;39812;52.430;16.936;2023-07-20T03:20:40;15.20;99.90
53904;DHT22;39812;52.430;16.936;2023-07-20T03:23:06;15.30;99.90
53904;DHT22;39812;52.430;16.936;2023-07-20T03:25:31;15.20;99.90
53904;DHT22;39812;52.430;16.936;2023-07-20T03:27:57;15.30;99.90
53904;DHT22;39812;52.430;16.936;2023-07-20T03:30:22;15.30;99.90
53904;DHT22;39812;52.430;16.936;2023-07-20T03:32:48;15.30;99.90
53904;DHT22;39812;52.430;16.936;2023-07-20T03:35:14;15.30;99.90
53904;DHT22;39812;52.430;16.936;2023-07-20T03:37:41;15.30;99.90
53904;DHT22;39812;52.430;16.936;2023-07-20T03:40:07;15.40;99.90
53904;DHT22;39812;52.430;16.936;2023-07-20T03:42:33;15.40;99.90
53904;DHT22;39812;52.430;16.936;2023-07-20T03:44:59;15.40;99.90
53904;DHT22;39812;52.430;16.936;2023-07-20T03:47:25;15.40;99.90
53904;DHT22;39812;52.430;16.936;2023-07-20T03:49:50;15.40;99.90
53904;DHT22;39812;52.430;16.936;2023-07-20T03:52:16;15.40;99.90
53904;DHT22;39812;52.430;16.936;2023-07-20T03:54:41;15.40;99.90
53904;DHT22;39812;52.430;16.936;2023-07-20T03:57:08;15.40;99.90
53904;DHT22;39812;52.430;16.936;2023-07-20T03:59:36;15.40;99.90
53904;DHT22;39812;52.430;16.936;2023-07-20T04:02:02;15.40;99.90
53904;DHT22;39812;52.430;16.936;2023-07-20T04:04:28;15.40;99.90
53904;DHT22;39812;52.430;16.936;2023-07-20T04:06:53;15.40;99.90
53904;DHT22;39812;52.430;16.936;2023-07-20T04:09:19;15.50;99.90
53904;DHT22;39812;52.430;16.936;2023-07-20T04:11:44;15.40;99.90
53904;DHT22;39812;52.430;16.936;2023-07-20T04:14:10;15.50;99.90
53904;DHT22;39812;52.430;16.936;2023-07-20T04:16:36;15.50;99.90
53904;DHT22;39812;52.430;16.936;2023-07-20T04:19:02;15.60;99.90
53904;DHT22;39812;52.430;16.936;2023-07-20T04:21:28;15.60;99.90
53904;DHT22;39812;52.430;16.936;2023-07-20T04:23:54;15.70;99.90
53904;DHT22;39812;52.430;16.936;2023-07-20T04:26:19;15.70;99.90
53904;DHT22;39812;52.430;16.936;2023-07-20T04:28:45;15.60;99.90
53904;DHT22;39812;52.430;16.936;2023-07-20T04:31:15;15.60;99.90
53904;DHT22;39812;52.430;16.936;2023-07-20T04:33:41;15.60;99.90
53904;DHT22;39812;52.430;16.936;2023-07-20T04:36:07;15.60;99.90
53904;DHT22;39812;52.430;16.936;2023-07-20T04:38:33;15.70;99.90
53904;DHT22;39812;52.430;16.936;2023-07-20T04:40:59;15.70;99.90
53904;DHT22;39812;52.430;16.936;2023-07-20T04:43:25;15.70;99.90
53904;DHT22;39812;52.430;16.936;2023-07-20T04:45:51;15.70;99.90
53904;DHT22;39812;52.430;16.936;2023-07-20T04:48:16;15.80;99.90
53904;DHT22;39812;52.430;16.936;2023-07-20T04:50:43;16.00;99.90
53904;DHT22;39812;52.430;16.936;2023-07-20T04:53:10;16.10;99.90
53904;DHT22;39812;52.430;16.936;2023-07-20T04:55:37;16.20;99.90
53904;DHT22;39812;52.430;16.936;2023-07-20T04:58:03;16.30;99.90
53904;DHT22;39812;52.430;16.936;2023-07-20T05:00:37;16.30;99.90
53904;DHT22;39812;52.430;16.936;2023-07-20T05:03:03;16.40;99.90
53904;DHT22;39812;52.430;16.936;2023-07-20T05:05:30;16.60;99.90
53904;DHT22;39812;52.430;16.936;2023-07-20T05:07:56;16.70;99.90
53904;DHT22;39812;52.430;16.936;2023-07-20T05:10:21;16.80;99.90
53904;DHT22;39812;52.430;16.936;2023-07-20T05:12:47;17.00;99.90
53904;DHT22;39812;52.430;16.936;2023-07-20T05:15:13;17.20;99.90
53904;DHT22;39812;52.430;16.936;2023-07-20T05:17:38;17.10;99.90
53904;DHT22;39812;52.430;16.936;2023-07-20T05:20:05;17.20;99.90
53904;DHT22;39812;52.430;16.936;2023-07-20T05:22:31;17.10;99.90
53904;DHT22;39812;52.430;16.936;2023-07-20T05:24:57;17.10;99.90
53904;DHT22;39812;52.430;16.936;2023-07-20T05:27:22;16.90;99.90
53904;DHT22;39812;52.430;16.936;2023-07-20T05:29:48;16.80;99.90
53904;DHT22;39812;52.430;16.936;2023-07-20T05:32:14;16.60;99.90
53904;DHT22;39812;52.430;16.936;2023-07-20T05:34:39;16.50;99.90
53904;DHT22;39812;52.430;16.936;2023-07-20T05:37:06;16.50;99.90
53904;DHT22;39812;52.430;16.936;2023-07-20T05:39:34;16.50;99.90
53904;DHT22;39812;52.430;16.936;2023-07-20T05:42:00;16.60;99.90
53904;DHT22;39812;52.430;16.936;2023-07-20T05:44:26;16.80;99.90
53904;DHT22;39812;52.430;16.936;2023-07-20T05:46:51;16.90;99.90
53904;DHT22;39812;52.430;16.936;2023-07-20T05:49:17;16.90;99.90
53904;DHT22;39812;52.430;16.936;2023-07-20T05:51:42;17.00;99.90
53904;DHT22;39812;52.430;16.936;2023-07-20T05:54:08;17.10;99.90
53904;DHT22;39812;52.430;16.936;2023-07-20T05:56:34;17.20;99.90
53904;DHT22;39812;52.430;16.936;2023-07-20T05:58:59;17.20;99.90
53904;DHT22;39812;52.430;16.936;2023-07-20T06:01:25;17.40;99.90
53904;DHT22;39812;52.430;16.936;2023-07-20T06:03:53;17.70;99.90
53904;DHT22;39812;52.430;16.936;2023-07-20T06:06:19;17.90;99.90
53904;DHT22;39812;52.430;16.936;2023-07-20T06:08:45;17.90;99.90
53904;DHT22;39812;52.430;16.936;2023-07-20T06:11:11;17.90;99.90
53904;DHT22;39812;52.430;16.936;2023-07-20T06:13:36;18.00;99.90
53904;DHT22;39812;52.430;16.936;2023-07-20T06:16:03;17.90;99.90
53904;DHT22;39812;52.430;16.936;2023-07-20T06:18:29;17.80;99.90
53904;DHT22;39812;52.430;16.936;2023-07-20T06:20:55;17.80;99.90
53904;DHT22;39812;52.430;16.936;2023-07-20T06:23:21;17.90;99.90
53904;DHT22;39812;52.430;16.936;2023-07-20T06:25:47;17.90;99.90
53904;DHT22;39812;52.430;16.936;2023-07-20T06:28:13;18.00;99.90
53904;DHT22;39812;52.430;16.936;2023-07-20T06:30:39;18.30;99.90
53904;DHT22;39812;52.430;16.936;2023-07-20T06:33:05;18.60;99.90
53904;DHT22;39812;52.430;16.936;2023-07-20T06:35:30;18.80;99.90
53904;DHT22;39812;52.430;16.936;2023-07-20T06:37:56;18.80;99.90
53904;DHT22;39812;52.430;16.936;2023-07-20T06:40:23;19.10;99.90
53904;DHT22;39812;52.430;16.936;2023-07-20T06:42:48;19.30;99.90
53904;DHT22;39812;52.430;16.936;2023-07-20T06:45:14;19.30;99.90
53904;DHT22;39812;52.430;16.936;2023-07-20T06:47:39;19.70;99.90
53904;DHT22;39812;52.430;16.936;2023-07-20T06:50:06;19.90;99.90
53904;DHT22;39812;52.430;16.936;2023-07-20T06:52:33;19.90;99.90
53904;DHT22;39812;52.430;16.936;2023-07-20T06:54:58;19.80;99.90
53904;DHT22;39812;52.430;16.936;2023-07-20T06:57:25;19.70;99.90
53904;DHT22;39812;52.430;16.936;2023-07-20T06:59:52;19.90;99.80
53904;DHT22;39812;52.430;16.936;2023-07-20T07:02:19;19.80;99.30
53904;DHT22;39812;52.430;16.936;2023-07-20T07:04:44;20.00;98.70
53904;DHT22;39812;52.430;16.936;2023-07-20T07:07:15;20.20;98.00
53904;DHT22;39812;52.430;16.936;2023-07-20T07:09:41;20.20;98.10
53904;DHT22;39812;52.430;16.936;2023-07-20T07:12:07;20.00;98.50
53904;DHT22;39812;52.430;16.936;2023-07-20T07:14:33;19.80;98.60
53904;DHT22;39812;52.430;16.936;2023-07-20T07:17:00;20.10;97.50
53904;DHT22;39812;52.430;16.936;2023-07-20T07:19:25;20.30;96.70
53904;DHT22;39812;52.430;16.936;2023-07-20T07:21:51;20.30;96.10
53904;DHT22;39812;52.430;16.936;2023-07-20T07:24:17;20.60;95.90
53904;DHT22;39812;52.430;16.936;2023-07-20T07:26:43;20.50;95.30
53904;DHT22;39812;52.430;16.936;2023-07-20T07:29:08;20.50;95.50
53904;DHT22;39812;52.430;16.936;2023-07-20T07:31:35;20.60;95.10
53904;DHT22;39812;52.430;16.936;2023-07-20T07:34:04;20.70;95.30
53904;DHT22;39812;52.430;16.936;2023-07-20T07:36:30;20.70;95.50
53904;DHT22;39812;52.430;16.936;2023-07-20T07:38:56;20.80;94.80
53904;DHT22;39812;52.430;16.936;2023-07-20T07:41:22;21.00;94.80
53904;DHT22;39812;52.430;16.936;2023-07-20T07:43:48;20.90;94.80
53904;DHT22;39812;52.430;16.936;2023-07-20T07:46:14;21.00;94.60
53904;DHT22;39812;52.430;16.936;2023-07-20T07:48:39;20.80;94.20
53904;DHT22;39812;52.430;16.936;2023-07-20T07:51:05;20.80;95.10
53904;DHT22;39812;52.430;16.936;2023-07-20T07:53:31;20.90;94.60
53904;DHT22;39812;52.430;16.936;2023-07-20T07:55:58;21.30;94.00
53904;DHT22;39812;52.430;16.936;2023-07-20T07:58:24;20.90;94.00
53904;DHT22;39812;52.430;16.936;2023-07-20T08:00:49;20.90;94.10
53904;DHT22;39812;52.430;16.936;2023-07-20T08:03:15;20.60;94.20
53904;DHT22;39812;52.430;16.936;2023-07-20T08:05:41;20.50;94.70
53904;DHT22;39812;52.430;16.936;2023-07-20T08:08:06;20.40;95.20
53904;DHT22;39812;52.430;16.936;2023-07-20T08:10:35;20.50;94.90
53904;DHT22;39812;52.430;16.936;2023-07-20T08:13:00;20.60;94.70
53904;DHT22;39812;52.430;16.936;2023-07-20T08:15:26;20.60;94.70
53904;DHT22;39812;52.430;16.936;2023-07-20T08:17:52;20.70;94.50
53904;DHT22;39812;52.430;16.936;2023-07-20T08:20:18;20.70;94.50
53904;DHT22;39812;52.430;16.936;2023-07-20T08:22:43;20.90;93.70
53904;DHT22;39812;52.430;16.936;2023-07-20T08:25:09;21.20;92.80
53904;DHT22;39812;52.430;16.936;2023-07-20T08:27:36;21.70;92.70
53904;DHT22;39812;52.430;16.936;2023-07-20T08:30:02;22.10;90.60
53904;DHT22;39812;52.430;16.936;2023-07-20T08:32:29;21.70;90.80
53904;DHT22;39812;52.430;16.936;2023-07-20T08:34:55;21.50;91.10
53904;DHT22;39812;52.430;16.936;2023-07-20T08:37:22;21.20;91.00
53904;DHT22;39812;52.430;16.936;2023-07-20T08:39:48;21.30;90.70
53904;DHT22;39812;52.430;16.936;2023-07-20T08:42:14;21.40;91.00
53904;DHT22;39812;52.430;16.936;2023-07-20T08:44:41;21.50;91.40
53904;DHT22;39812;52.430;16.936;2023-07-20T08:47:09;21.60;90.30
53904;DHT22;39812;52.430;16.936;2023-07-20T08:49:35;21.50;89.30
53904;DHT22;39812;52.430;16.936;2023-07-20T08:52:02;21.20;89.50
53904;DHT22;39812;52.430;16.936;2023-07-20T08:54:30;21.10;91.40
53904;DHT22;39812;52.430;16.936;2023-07-20T08:57:02;20.90;90.10
53904;DHT22;39812;52.430;16.936;2023-07-20T08:59:29;20.90;92.30
53904;DHT22;39812;52.430;16.936;2023-07-20T09:01:57;20.70;93.10
53904;DHT22;39812;52.430;16.936;2023-07-20T09:04:24;20.40;94.10
53904;DHT22;39812;52.430;16.936;2023-07-20T09:06:50;20.20;94.60
53904;DHT22;39812;52.430;16.936;2023-07-20T09:09:16;19.90;94.70
53904;DHT22;39812;52.430;16.936;2023-07-20T09:11:42;19.60;95.30
53904;DHT22;39812;52.430;16.936;2023-07-20T09:14:09;19.30;96.80
53904;DHT22;39812;52.430;16.936;2023-07-20T09:16:54;16.90;99.90
53904;DHT22;39812;52.430;16.936;2023-07-20T09:19:20;14.60;99.90
53904;DHT22;39812;52.430;16.936;2023-07-20T09:21:51;15.40;99.90
53904;DHT22;39812;52.430;16.936;2023-07-20T09:24:20;16.60;99.90
53904;DHT22;39812;52.430;16.936;2023-07-20T09:26:48;17.20;99.90
53904;DHT22;39812;52.430;16.936;2023-07-20T09:29:17;17.90;99.90
53904;DHT22;39812;52.430;16.936;2023-07-20T09:32:04;18.50;99.90
53904;DHT22;39812;52.430;16.936;2023-07-20T09:34:31;19.20;99.90
53904;DHT22;39812;52.430;16.936;2023-07-20T09:37:00;19.50;99.90
53904;DHT22;39812;52.430;16.936;2023-07-20T09:39:26;19.70;99.90
53904;DHT22;39812;52.430;16.936;2023-07-20T09:41:52;20.10;99.90
53904;DHT22;39812;52.430;16.936;2023-07-20T09:44:18;20.20;99.90
53904;DHT22;39812;52.430;16.936;2023-07-20T09:46:50;20.30;99.90
53904;DHT22;39812;52.430;16.936;2023-07-20T09:49:17;20.10;99.90
53904;DHT22;39812;52.430;16.936;2023-07-20T09:51:44;20.20;99.90
53904;DHT22;39812;52.430;16.936;2023-07-20T09:54:11;20.30;99.90
53904;DHT22;39812;52.430;16.936;2023-07-20T09:56:38;20.80;99.90
53904;DHT22;39812;52.430;16.936;2023-07-20T09:59:05;20.60;99.90
53904;DHT22;39812;52.430;16.936;2023-07-20T10:01:32;20.70;99.90
53904;DHT22;39812;52.430;16.936;2023-07-20T10:04:02;20.90;99.90
53904;DHT22;39812;52.430;16.936;2023-07-20T10:06:28;21.10;99.90
53904;DHT22;39812;52.430;16.936;2023-07-20T10:08:59;21.30;99.90
53904;DHT22;39812;52.430;16.936;2023-07-20T10:11:29;21.40;99.90
53904;DHT22;39812;52.430;16.936;2023-07-20T10:13:58;21.80;99.90
53904;DHT22;39812;52.430;16.936;2023-07-20T10:16:34;22.00;99.90
53904;DHT22;39812;52.430;16.936;2023-07-20T10:22:05;22.00;99.90
53904;DHT22;39812;52.430;16.936;2023-07-20T10:24:33;22.20;99.90
53904;DHT22;39812;52.430;16.936;2023-07-20T10:27:00;22.80;99.90
53904;DHT22;39812;52.430;16.936;2023-07-20T10:29:26;22.00;99.90
53904;DHT22;39812;52.430;16.936;2023-07-20T10:31:54;22.40;99.90
53904;DHT22;39812;52.430;16.936;2023-07-20T10:34:20;22.60;99.90
53904;DHT22;39812;52.430;16.936;2023-07-20T10:39:23;23.10;99.90
53904;DHT22;39812;52.430;16.936;2023-07-20T10:41:50;22.90;99.90
53904;DHT22;39812;52.430;16.936;2023-07-20T10:44:19;23.40;99.90
53904;DHT22;39812;52.430;16.936;2023-07-20T10:46:46;24.10;99.90
53904;DHT22;39812;52.430;16.936;2023-07-20T10:49:13;23.20;99.90
53904;DHT22;39812;52.430;16.936;2023-07-20T10:51:51;22.80;99.90
53904;DHT22;39812;52.430;16.936;2023-07-20T11:22:07;21.20;99.90
53904;DHT22;39812;52.430;16.936;2023-07-20T12:11:31;23.10;99.90
53904;DHT22;39812;52.430;16.936;2023-07-20T12:13:57;22.90;99.90
53904;DHT22;39812;52.430;16.936;2023-07-20T12:16:27;23.10;99.90
53904;DHT22;39812;52.430;16.936;2023-07-20T12:19:19;26.40;99.90
53904;DHT22;39812;52.430;16.936;2023-07-20T12:21:45;29.80;99.90
53904;DHT22;39812;52.430;16.936;2023-07-20T12:24:11;30.30;99.90
53904;DHT22;39812;52.430;16.936;2023-07-20T12:26:37;30.30;57.70
53904;DHT22;39812;52.430;16.936;2023-07-20T12:29:03;29.70;55.30
53904;DHT22;39812;52.430;16.936;2023-07-20T12:31:29;30.80;55.30
53904;DHT22;39812;52.430;16.936;2023-07-20T12:33:56;32.50;54.80
53904;DHT22;39812;52.430;16.936;2023-07-20T12:36:22;33.30;51.30
53904;DHT22;39812;52.430;16.936;2023-07-20T12:38:48;33.20;51.30
53904;DHT22;39812;52.430;16.936;2023-07-20T12:41:14;33.50;51.20
53904;DHT22;39812;52.430;16.936;2023-07-20T12:43:44;31.80;51.50
53904;DHT22;39812;52.430;16.936;2023-07-20T12:46:10;30.40;54.30
53904;DHT22;39812;52.430;16.936;2023-07-20T12:48:40;29.70;53.40
53904;DHT22;39812;52.430;16.936;2023-07-20T12:51:08;29.10;55.10
53904;DHT22;39812;52.430;16.936;2023-07-20T12:53:34;29.70;55.70
53904;DHT22;39812;52.430;16.936;2023-07-20T12:56:00;31.10;52.70
53904;DHT22;39812;52.430;16.936;2023-07-20T12:58:26;31.20;53.10
53904;DHT22;39812;52.430;16.936;2023-07-20T13:00:51;30.80;51.30
53904;DHT22;39812;52.430;16.936;2023-07-20T13:03:17;27.20;56.70
53904;DHT22;39812;52.430;16.936;2023-07-20T13:05:45;25.40;61.10
53904;DHT22;39812;52.430;16.936;2023-07-20T13:08:10;25.20;62.10
53904;DHT22;39812;52.430;16.936;2023-07-20T13:10:37;25.20;63.50
53904;DHT22;39812;52.430;16.936;2023-07-20T13:13:04;24.60;63.50
53904;DHT22;39812;52.430;16.936;2023-07-20T13:15:31;24.30;64.90
53904;DHT22;39812;52.430;16.936;2023-07-20T13:17:59;24.80;64.20
53904;DHT22;39812;52.430;16.936;2023-07-20T13:20:26;26.60;61.10
53904;DHT22;39812;52.430;16.936;2023-07-20T13:22:52;25.40;61.70
53904;DHT22;39812;52.430;16.936;2023-07-20T13:25:17;26.40;62.30
53904;DHT22;39812;52.430;16.936;2023-07-20T13:27:44;26.20;60.70
53904;DHT22;39812;52.430;16.936;2023-07-20T13:30:10;25.50;61.50
53904;DHT22;39812;52.430;16.936;2023-07-20T13:32:44;25.20;62.60
53904;DHT22;39812;52.430;16.936;2023-07-20T13:35:13;26.00;63.80
53904;DHT22;39812;52.430;16.936;2023-07-20T13:37:39;28.70;58.20
53904;DHT22;39812;52.430;16.936;2023-07-20T13:40:06;32.30;54.30
53904;DHT22;39812;52.430;16.936;2023-07-20T13:42:32;35.40;50.90
53904;DHT22;39812;52.430;16.936;2023-07-20T13:44:58;37.80;47.00
53904;DHT22;39812;52.430;16.936;2023-07-20T13:47:24;32.70;48.90
53904;DHT22;39812;52.430;16.936;2023-07-20T13:49:49;32.80;51.00
53904;DHT22;39812;52.430;16.936;2023-07-20T13:52:15;29.90;53.40
53904;DHT22;39812;52.430;16.936;2023-07-20T13:54:41;27.10;57.60
53904;DHT22;39812;52.430;16.936;2023-07-20T13:57:07;25.70;61.50
53904;DHT22;39812;52.430;16.936;2023-07-20T13:59:32;25.30;62.30
53904;DHT22;39812;52.430;16.936;2023-07-20T14:02:23;30.30;58.20
53904;DHT22;39812;52.430;16.936;2023-07-20T14:04:49;31.90;53.10
53904;DHT22;39812;52.430;16.936;2023-07-20T14:07:15;31.30;52.00
53904;DHT22;39812;52.430;16.936;2023-07-20T14:09:40;31.00;52.90
53904;DHT22;39812;52.430;16.936;2023-07-20T14:12:06;32.20;52.80
53904;DHT22;39812;52.430;16.936;2023-07-20T14:14:33;35.10;49.50
53904;DHT22;39812;52.430;16.936;2023-07-20T14:16:59;32.10;50.80
53904;DHT22;39812;52.430;16.936;2023-07-20T14:19:24;30.70;53.50
53904;DHT22;39812;52.430;16.936;2023-07-20T14:21:50;29.10;55.40
53904;DHT22;39812;52.430;16.936;2023-07-20T14:24:16;28.80;56.30
53904;DHT22;39812;52.430;16.936;2023-07-20T14:26:41;27.00;59.20
53904;DHT22;39812;52.430;16.936;2023-07-20T14:29:07;26.70;60.00
53904;DHT22;39812;52.430;16.936;2023-07-20T14:31:32;26.80;59.30
53904;DHT22;39812;52.430;16.936;2023-07-20T14:33:58;27.60;59.60
53904;DHT22;39812;52.430;16.936;2023-07-20T14:36:24;26.80;61.50
53904;DHT22;39812;52.430;16.936;2023-07-20T14:38:49;25.50;64.50
53904;DHT22;39812;52.430;16.936;2023-07-20T14:41:15;24.70;67.80
53904;DHT22;39812;52.430;16.936;2023-07-20T14:43:40;25.80;65.10
53904;DHT22;39812;52.430;16.936;2023-07-20T14:46:06;24.30;68.10
53904;DHT22;39812;52.430;16.936;2023-07-20T14:48:32;23.20;70.40
53904;DHT22;39812;52.430;16.936;2023-07-20T14:50:57;22.60;73.90
53904;DHT22;39812;52.430;16.936;2023-07-20T14:53:23;24.20;70.30
53904;DHT22;39812;52.430;16.936;2023-07-20T14:55:48;23.80;70.50
53904;DHT22;39812;52.430;16.936;2023-07-20T14:58:14;23.30;69.20
53904;DHT22;39812;52.430;16.936;2023-07-20T15:00:40;22.70;70.60
53904;DHT22;39812;52.430;16.936;2023-07-20T15:03:05;22.90;70.90
53904;DHT22;39812;52.430;16.936;2023-07-20T15:05:31;23.00;68.80
53904;DHT22;39812;52.430;16.936;2023-07-20T15:07:57;23.40;69.10
53904;DHT22;39812;52.430;16.936;2023-07-20T15:10:22;23.70;67.00
53904;DHT22;39812;52.430;16.936;2023-07-20T15:12:48;29.30;60.30
53904;DHT22;39812;52.430;16.936;2023-07-20T15:15:14;29.90;54.50
53904;DHT22;39812;52.430;16.936;2023-07-20T16:04:07;22.00;72.90
53904;DHT22;39812;52.430;16.936;2023-07-20T16:06:33;21.90;73.90
53904;DHT22;39812;52.430;16.936;2023-07-20T16:09:03;22.00;73.80
53904;DHT22;39812;52.430;16.936;2023-07-20T16:11:30;22.30;73.80
53904;DHT22;39812;52.430;16.936;2023-07-20T16:13:56;22.40;73.50
53904;DHT22;39812;52.430;16.936;2023-07-20T16:21:20;21.80;76.10
53904;DHT22;39812;52.430;16.936;2023-07-20T16:23:46;21.50;77.10
53904;DHT22;39812;52.430;16.936;2023-07-20T16:26:12;21.60;76.20
53904;DHT22;39812;52.430;16.936;2023-07-20T16:28:38;21.40;77.70
53904;DHT22;39812;52.430;16.936;2023-07-20T16:36:02;22.30;76.00
53904;DHT22;39812;52.430;16.936;2023-07-20T16:40:57;22.70;74.50
53904;DHT22;39812;52.430;16.936;2023-07-20T16:45:48;22.90;75.20
53904;DHT22;39812;52.430;16.936;2023-07-20T16:53:06;22.50;75.30
53904;DHT22;39812;52.430;16.936;2023-07-20T16:55:32;22.60;76.40
53904;DHT22;39812;52.430;16.936;2023-07-20T16:57:57;23.10;75.10
53904;DHT22;39812;52.430;16.936;2023-07-20T17:00:23;24.30;73.30
53904;DHT22;39812;52.430;16.936;2023-07-20T17:05:15;29.90;62.60
53904;DHT22;39812;52.430;16.936;2023-07-20T17:07:40;30.90;60.20
53904;DHT22;39812;52.430;16.936;2023-07-20T17:12:37;31.00;57.50
53904;DHT22;39812;52.430;16.936;2023-07-20T17:17:29;31.40;57.90
53904;DHT22;39812;52.430;16.936;2023-07-20T17:22:21;34.00;52.30
53904;DHT22;39812;52.430;16.936;2023-07-20T17:24:47;36.40;50.70
53904;DHT22;39812;52.430;16.936;2023-07-20T17:27:12;37.70;48.20
53904;DHT22;39812;52.430;16.936;2023-07-20T17:29:38;37.20;48.20
53904;DHT22;39812;52.430;16.936;2023-07-20T17:32:04;35.40;47.80
53904;DHT22;39812;52.430;16.936;2023-07-20T17:34:29;34.30;50.00
53904;DHT22;39812;52.430;16.936;2023-07-20T17:36:55;32.90;50.00
53904;DHT22;39812;52.430;16.936;2023-07-20T17:39:21;33.00;51.70
53904;DHT22;39812;52.430;16.936;2023-07-20T17:41:47;33.20;51.30
53904;DHT22;39812;52.430;16.936;2023-07-20T17:44:15;34.20;50.50
53904;DHT22;39812;52.430;16.936;2023-07-20T17:46:40;35.40;49.30
53904;DHT22;39812;52.430;16.936;2023-07-20T17:49:06;34.60;49.10
53904;DHT22;39812;52.430;16.936;2023-07-20T17:51:32;35.10;49.00
53904;DHT22;39812;52.430;16.936;2023-07-20T17:53:57;33.90;50.10
53904;DHT22;39812;52.430;16.936;2023-07-20T17:56:23;33.40;50.50